Time;durP1;ratioP1;P1;durP2;ratioP2;P2;SDS_P1;SDS_P2;PMS_P1;PMS_P2;Temp;Humidity;BMP_temperature;BMP_pressure;BME280_temperature;BME280_humidity;BME280_pressure;Samples;Min_cycle;Max_cycle;Signal;HPM_P1;HPM_P2
2022/11/07 00:02:13;;;;;;;7.75;5.53;;;10.10;99.90;;;;;;5144897;27;20493;-75
2022/11/07 00:04:39;;;;;;;12.40;5.75;;;10.10;99.90;;;;;;5133998;27;20037;-74
2022/11/07 00:07:05;;;;;;;8.07;5.30;;;10.20;99.90;;;;;;5134279;27;20504;-75
2022/11/07 00:09:31;;;;;;;11.80;5.28;;;11.00;99.90;;;;;;5112677;27;20067;-74
2022/11/07 00:11:57;;;;;;;8.13;4.47;;;10.20;99.90;;;;;;5127474;27;20035;-75
2022/11/07 00:14:22;;;;;;;13.60;4.90;;;10.20;99.90;;;;;;5143025;27;20455;-75
2022/11/07 00:16:49;;;;;;;5.90;4.70;;;10.20;99.90;;;;;;5117904;27;20077;-73
2022/11/07 00:19:17;;;;;;;9.10;4.68;;;11.10;99.90;;;;;;5109820;27;20098;-74
2022/11/07 00:21:43;;;;;;;8.32;4.93;;;11.30;99.90;;;;;;5126644;27;20541;-74
2022/11/07 00:24:09;;;;;;;12.07;4.45;;;10.30;99.90;;;;;;5146080;27;20541;-74
2022/11/07 00:26:36;;;;;;;10.57;5.22;;;10.30;99.90;;;;;;5138511;27;20389;-74
2022/11/07 00:29:02;;;;;;;7.07;3.60;;;10.30;99.90;;;;;;5124996;27;20047;-75
2022/11/07 00:31:27;;;;;;;11.48;5.07;;;10.40;99.90;;;;;;5146924;27;20121;-74
2022/11/07 00:33:53;;;;;;;14.05;4.90;;;10.30;99.90;;;;;;5123912;27;20578;-74
2022/11/07 00:36:24;;;;;;;9.80;4.72;;;10.90;99.90;;;;;;5125778;27;20055;-74
2022/11/07 00:38:50;;;;;;;9.90;4.63;;;10.30;99.90;;;;;;5143086;27;20081;-74
2022/11/07 00:41:16;;;;;;;11.85;4.70;;;10.40;99.90;;;;;;5113162;27;20050;-75
2022/11/07 00:43:42;;;;;;;8.25;4.13;;;10.40;99.90;;;;;;5129776;27;20050;-75
2022/11/07 00:46:10;;;;;;;11.90;4.95;;;10.40;99.90;;;;;;5114554;27;20956;-75
2022/11/07 00:48:36;;;;;;;14.27;5.40;;;11.60;99.90;;;;;;5139820;27;20042;-75
2022/11/07 00:51:28;;;;;;;10.23;4.57;;;10.40;99.90;;;;;;5133658;27;20091;-74
2022/11/07 00:53:54;;;;;;;10.27;4.40;;;10.40;99.90;;;;;;5137836;27;20561;-75
2022/11/07 00:56:23;;;;;;;10.18;4.97;;;10.40;99.90;;;;;;5131663;27;20512;-75
2022/11/07 00:58:56;;;;;;;9.35;4.43;;;11.30;99.90;;;;;;5135340;27;20062;-75
2022/11/07 01:01:25;;;;;;;10.68;3.78;;;10.40;99.90;;;;;;5095403;27;20045;-75
2022/11/07 01:06:36;;;;;;;;;;;10.50;99.90;;;;;;5142333;27;20051;-74
2022/11/07 01:09:07;;;;;;;12.38;4.03;;;11.10;99.90;;;;;;5134278;27;19926;-74
2022/11/07 01:11:35;;;;;;;15.10;4.45;;;10.50;99.90;;;;;;5116500;27;20490;-75
2022/11/07 01:14:02;;;;;;;11.75;4.97;;;10.60;99.90;;;;;;5132183;27;20042;-75
2022/11/07 01:16:29;;;;;;;21.35;4.22;;;10.50;99.90;;;;;;5144100;27;20046;-75
2022/11/07 01:18:56;;;;;;;11.73;4.47;;;10.50;99.90;;;;;;5144320;27;20038;-75
2022/11/07 01:21:21;;;;;;;12.85;4.55;;;10.50;99.90;;;;;;5143824;27;20031;-74
2022/11/07 01:23:47;;;;;;;9.80;4.00;;;10.50;99.90;;;;;;5124919;27;20054;-74
2022/11/07 01:26:14;;;;;;;9.40;3.88;;;10.50;99.90;;;;;;5148334;27;20038;-74
2022/11/07 01:28:40;;;;;;;6.20;2.95;;;11.70;99.90;;;;;;5140457;27;20046;-75
2022/11/07 01:31:09;;;;;;;6.90;4.00;;;10.50;99.90;;;;;;5130244;27;20053;-75
2022/11/07 01:33:35;;;;;;;11.23;4.88;;;10.60;99.90;;;;;;5131866;27;20158;-74
2022/11/07 01:36:07;;;;;;;9.73;4.65;;;10.60;99.90;;;;;;5131670;27;20043;-74
2022/11/07 01:38:35;;;;;;;10.57;4.93;;;10.50;99.90;;;;;;5134582;27;20042;-74
2022/11/07 01:44:02;;;;;;;8.43;4.50;;;10.50;99.90;;;;;;5143080;27;20095;-74
2022/11/07 01:46:36;;;;;;;11.23;4.25;;;10.50;99.90;;;;;;5130625;27;20051;-74
2022/11/07 01:49:05;;;;;;;9.10;3.67;;;10.50;99.90;;;;;;5124871;27;20482;-74
2022/11/07 01:51:36;;;;;;;14.15;3.92;;;10.50;99.90;;;;;;5113143;27;20175;-74
2022/11/07 01:54:05;;;;;;;8.90;3.75;;;10.50;99.90;;;;;;5121986;27;20046;-74
2022/11/07 01:56:34;;;;;;;11.23;3.85;;;10.60;99.90;;;;;;5105823;27;20031;-74
2022/11/07 01:59:01;;;;;;;11.23;4.38;;;10.50;99.90;;;;;;5141089;27;20083;-74
2022/11/07 02:01:26;;;;;;;12.90;4.57;;;10.50;99.90;;;;;;5111601;27;20046;-74
2022/11/07 02:03:54;;;;;;;8.90;3.50;;;10.50;99.90;;;;;;5126194;27;20509;-74
2022/11/07 02:06:35;;;;;;;9.20;3.65;;;10.50;99.90;;;;;;5127693;27;20035;-75
2022/11/07 02:09:01;;;;;;;5.93;3.25;;;10.50;99.90;;;;;;5102506;27;20034;-75
2022/11/07 02:11:27;;;;;;;8.90;3.05;;;10.50;99.90;;;;;;5104222;27;20031;-76
2022/11/07 02:13:53;;;;;;;12.95;3.60;;;10.60;99.90;;;;;;5130829;27;20581;-75
2022/11/07 02:16:18;;;;;;;10.57;3.47;;;11.30;99.90;;;;;;5113997;27;20047;-75
2022/11/07 02:18:44;;;;;;;11.13;3.35;;;11.60;99.90;;;;;;5097503;27;20390;-75
2022/11/07 02:21:17;;;;;;;10.77;3.00;;;10.60;99.90;;;;;;5129047;27;20061;-75
2022/11/07 02:23:57;;;;;;;12.00;3.20;;;10.60;99.90;;;;;;5126720;27;20035;-74
2022/11/07 02:26:23;;;;;;;11.63;4.03;;;10.60;99.90;;;;;;5125970;27;20500;-75
2022/11/07 02:28:52;;;;;;;13.75;2.83;;;10.60;99.90;;;;;;5110702;27;20083;-75
2022/11/07 02:31:18;;;;;;;11.73;2.00;;;11.40;99.90;;;;;;5138007;27;20111;-75
2022/11/07 02:33:43;;;;;;;7.40;2.28;;;10.60;99.90;;;;;;5122518;27;21942;-75
2022/11/07 02:36:16;;;;;;;7.93;2.95;;;10.60;99.90;;;;;;5123781;27;20122;-75
2022/11/07 02:38:43;;;;;;;9.88;3.20;;;10.60;99.90;;;;;;5119389;27;20031;-74
2022/11/07 02:41:15;;;;;;;12.57;2.90;;;10.60;99.90;;;;;;5124981;27;20387;-75
2022/11/07 02:43:47;;;;;;;12.40;2.80;;;10.60;99.90;;;;;;5119408;27;20486;-75
2022/11/07 02:46:14;;;;;;;14.68;3.20;;;10.60;99.90;;;;;;5124768;27;20509;-75
2022/11/07 02:48:44;;;;;;;16.92;2.83;;;10.60;99.90;;;;;;5129269;27;20081;-75
2022/11/07 02:51:10;;;;;;;8.10;2.85;;;10.60;99.90;;;;;;5127218;27;20040;-76
2022/11/07 02:53:36;;;;;;;9.50;2.97;;;10.60;99.90;;;;;;5123148;27;20500;-75
2022/11/07 02:56:01;;;;;;;11.10;2.70;;;10.70;99.90;;;;;;5125980;27;20035;-75
2022/11/07 02:58:27;;;;;;;10.70;2.75;;;10.60;99.90;;;;;;5124713;27;20040;-76
2022/11/07 03:00:53;;;;;;;8.95;2.20;;;10.60;99.90;;;;;;5122948;27;20035;-76
2022/11/07 03:03:18;;;;;;;7.60;2.53;;;10.70;99.90;;;;;;5124093;27;20040;-75
2022/11/07 03:05:44;;;;;;;9.43;2.30;;;10.50;99.90;;;;;;5110129;27;20083;-75
2022/11/07 03:08:09;;;;;;;10.70;2.30;;;10.70;99.90;;;;;;5121598;27;20119;-75
2022/11/07 03:10:35;;;;;;;12.43;2.60;;;11.00;99.90;;;;;;5109870;27;20496;-75
2022/11/07 03:13:01;;;;;;;8.80;2.72;;;10.60;99.90;;;;;;5109341;27;20045;-75
2022/11/07 03:15:26;;;;;;;9.98;3.15;;;10.50;99.90;;;;;;5128811;27;20039;-75
2022/11/07 03:17:52;;;;;;;13.25;2.80;;;10.90;99.90;;;;;;5127281;27;20033;-76
2022/11/07 03:20:18;;;;;;;8.68;2.35;;;11.60;99.90;;;;;;5124585;27;20051;-76
2022/11/07 03:22:46;;;;;;;11.07;2.70;;;10.50;99.90;;;;;;5119542;27;20458;-76
2022/11/07 03:25:11;;;;;;;12.32;3.25;;;10.50;99.90;;;;;;5124801;27;20039;-76
2022/11/07 03:27:47;;;;;;;15.75;2.85;;;10.70;99.90;;;;;;5125486;27;20111;-76
2022/11/07 03:30:13;;;;;;;9.52;2.95;;;10.50;99.90;;;;;;5124749;27;20050;-76
2022/11/07 03:32:39;;;;;;;11.40;2.88;;;10.50;99.90;;;;;;5117913;27;20043;-76
2022/11/07 03:35:05;;;;;;;10.63;3.00;;;10.80;99.90;;;;;;5125265;27;20114;-75
2022/11/07 03:37:31;;;;;;;6.72;2.20;;;10.50;99.90;;;;;;5128272;27;20414;-75
2022/11/07 03:39:56;;;;;;;6.72;2.00;;;11.70;99.90;;;;;;5122419;27;20040;-76
2022/11/07 03:42:22;;;;;;;7.95;1.98;;;10.50;99.90;;;;;;5108032;27;20069;-76
2022/11/07 03:44:47;;;;;;;12.60;3.35;;;10.50;99.90;;;;;;5110385;27;20494;-76
2022/11/07 03:47:13;;;;;;;10.73;2.40;;;10.50;99.90;;;;;;5104432;28;20036;-76
2022/11/07 03:49:39;;;;;;;6.43;1.77;;;11.00;99.90;;;;;;5118487;27;20084;-76
2022/11/07 03:52:04;;;;;;;9.13;2.15;;;10.40;99.90;;;;;;5123655;27;20074;-75
2022/11/07 03:54:30;;;;;;;10.60;2.33;;;11.70;99.90;;;;;;5119850;27;20474;-76
2022/11/07 03:56:56;;;;;;;6.60;2.20;;;10.50;99.90;;;;;;5109317;27;20039;-76
2022/11/07 03:59:21;;;;;;;12.93;2.92;;;10.40;99.90;;;;;;5123053;27;20050;-76
2022/11/07 04:01:47;;;;;;;11.43;2.42;;;10.40;99.90;;;;;;5120296;27;20130;-76
2022/11/07 04:04:13;;;;;;;10.95;2.85;;;10.40;99.90;;;;;;5103763;27;21051;-76
2022/11/07 04:06:38;;;;;;;12.38;2.22;;;10.40;99.90;;;;;;5121204;27;20360;-76
2022/11/07 04:09:04;;;;;;;12.73;2.70;;;10.30;99.90;;;;;;5122252;27;20062;-75
2022/11/07 04:19:43;;;;;;;11.77;2.53;;;10.40;99.90;;;;;;5121346;27;20043;-75
2022/11/07 04:22:08;;;;;;;10.35;2.53;;;10.30;99.90;;;;;;5119957;27;20053;-75
2022/11/07 04:24:34;;;;;;;10.00;3.53;;;10.40;99.90;;;;;;5119532;27;20070;-75
2022/11/07 04:29:44;;;;;;;16.00;3.08;;;10.30;99.90;;;;;;5122939;27;20143;-76
2022/11/07 04:32:09;;;;;;;13.65;3.05;;;10.30;99.90;;;;;;5102513;27;20498;-76
2022/11/07 04:34:35;;;;;;;17.27;3.00;;;10.30;99.90;;;;;;5125712;27;20035;-76
2022/11/07 04:37:00;;;;;;;14.02;3.25;;;10.30;99.90;;;;;;5118243;27;20460;-76
2022/11/07 04:39:27;;;;;;;11.63;3.13;;;10.50;99.90;;;;;;5121077;27;20134;-75
2022/11/07 04:41:55;;;;;;;19.65;3.00;;;10.30;99.90;;;;;;5118603;27;20043;-76
2022/11/07 04:44:21;;;;;;;11.45;2.80;;;10.30;99.90;;;;;;5126893;27;20050;-76
2022/11/07 04:46:47;;;;;;;19.15;3.30;;;10.50;99.90;;;;;;5121943;27;20039;-75
2022/11/07 04:49:15;;;;;;;15.30;3.63;;;10.40;99.90;;;;;;5121379;27;20104;-75
2022/11/07 04:51:44;;;;;;;13.77;3.28;;;10.40;99.90;;;;;;5126825;27;20043;-75
2022/11/07 04:54:12;;;;;;;15.40;3.50;;;11.00;99.90;;;;;;5120014;27;20070;-75
2022/11/07 04:56:38;;;;;;;17.52;3.30;;;11.50;99.90;;;;;;5124981;27;20047;-75
2022/11/07 04:59:04;;;;;;;16.10;3.25;;;10.40;99.90;;;;;;5118777;27;20092;-75
2022/11/07 05:01:29;;;;;;;9.52;3.30;;;10.40;99.90;;;;;;5108071;27;20395;-75
2022/11/07 05:03:55;;;;;;;7.90;3.05;;;10.70;99.90;;;;;;5123193;27;20078;-76
2022/11/07 05:06:22;;;;;;;11.57;3.58;;;11.50;99.90;;;;;;5127174;27;20039;-75
2022/11/07 05:08:47;;;;;;;12.50;3.50;;;11.10;99.90;;;;;;5120155;27;20035;-74
2022/11/07 05:11:13;;;;;;;13.00;3.88;;;10.40;99.90;;;;;;5118508;27;20059;-75
2022/11/07 05:13:39;;;;;;;9.88;2.92;;;10.40;99.90;;;;;;5127437;28;20043;-75
2022/11/07 05:16:05;;;;;;;16.30;3.67;;;10.40;99.90;;;;;;5100805;28;20035;-74
2022/11/07 05:18:31;;;;;;;9.98;3.55;;;10.30;99.90;;;;;;5126636;28;20035;-76
2022/11/07 05:20:57;;;;;;;13.45;3.80;;;10.40;99.90;;;;;;5117978;28;20441;-75
2022/11/07 05:23:23;;;;;;;15.57;3.72;;;10.30;99.90;;;;;;5118448;28;20047;-76
2022/11/07 05:25:52;;;;;;;22.58;4.07;;;10.30;99.90;;;;;;5113386;28;20532;-75
2022/11/07 05:28:26;;;;;;;12.68;3.58;;;11.30;99.90;;;;;;5086082;28;20058;-74
2022/11/07 05:30:52;;;;;;;15.47;3.87;;;10.40;99.90;;;;;;5117360;28;20118;-76
2022/11/07 05:33:19;;;;;;;14.18;3.13;;;10.30;99.90;;;;;;5122018;27;20096;-75
2022/11/07 05:35:45;;;;;;;10.35;3.80;;;10.30;99.90;;;;;;5122846;27;20045;-75
2022/11/07 05:38:12;;;;;;;10.32;3.30;;;10.30;99.90;;;;;;5109024;27;20034;-75
2022/11/07 05:40:41;;;;;;;14.82;3.33;;;10.30;99.90;;;;;;5126034;27;20049;-74
2022/11/07 05:43:09;;;;;;;15.70;3.40;;;10.60;99.90;;;;;;5118114;27;20397;-75
2022/11/07 05:45:39;;;;;;;11.75;3.67;;;10.30;99.90;;;;;;5131022;27;20459;-74
2022/11/07 05:48:07;;;;;;;14.45;3.92;;;11.20;99.90;;;;;;5138052;27;20042;-75
2022/11/07 05:50:33;;;;;;;12.65;3.20;;;10.30;99.90;;;;;;5109388;27;20113;-75
2022/11/07 05:52:59;;;;;;;16.88;5.20;;;11.00;99.90;;;;;;5145595;27;20043;-75
2022/11/07 05:55:25;;;;;;;15.13;4.00;;;10.30;99.90;;;;;;5137628;27;20103;-75
2022/11/07 05:57:51;;;;;;;13.52;4.60;;;10.30;99.90;;;;;;5144179;27;20554;-76
2022/11/07 06:00:17;;;;;;;10.20;3.63;;;10.30;99.90;;;;;;5135038;27;20043;-75
2022/11/07 06:02:44;;;;;;;13.30;4.30;;;10.30;99.90;;;;;;5120163;27;20050;-76
2022/11/07 06:05:10;;;;;;;17.70;5.25;;;10.30;99.90;;;;;;5134496;27;20417;-75
2022/11/07 06:07:37;;;;;;;11.02;4.03;;;10.90;99.90;;;;;;5143023;27;20043;-76
2022/11/07 06:10:07;;;;;;;19.15;4.93;;;10.30;99.90;;;;;;5144398;27;20035;-75
2022/11/07 06:12:33;;;;;;;17.65;4.22;;;10.30;99.90;;;;;;5143144;27;20050;-75
2022/11/07 06:14:59;;;;;;;10.82;4.05;;;10.30;99.90;;;;;;5148756;27;20060;-75
2022/11/07 06:17:24;;;;;;;21.30;5.55;;;10.30;99.90;;;;;;5110771;27;20046;-75
2022/11/07 06:19:50;;;;;;;18.88;4.00;;;10.30;99.90;;;;;;5143963;27;20074;-75
2022/11/07 06:22:16;;;;;;;10.52;3.60;;;9.50;99.90;;;;;;5127879;27;20041;-74
2022/11/07 06:24:41;;;;;;;16.67;5.20;;;11.50;99.90;;;;;;5145759;27;20538;-75
2022/11/07 06:27:07;;;;;;;16.83;4.18;;;10.00;99.90;;;;;;5134177;27;20046;-76
2022/11/07 06:29:32;;;;;;;17.38;4.72;;;10.30;99.90;;;;;;5114493;27;20110;-75
2022/11/07 06:31:58;;;;;;;15.02;4.90;;;10.90;99.90;;;;;;5152526;27;20470;-75
2022/11/07 06:34:24;;;;;;;14.82;3.85;;;10.20;99.90;;;;;;5149319;27;20047;-75
2022/11/07 06:36:53;;;;;;;13.32;4.25;;;10.20;99.90;;;;;;5152838;27;20045;-76
2022/11/07 06:39:19;;;;;;;11.55;3.70;;;10.20;99.90;;;;;;5127710;27;20506;-77
2022/11/07 06:41:46;;;;;;;13.98;3.92;;;10.20;99.90;;;;;;5150889;27;20089;-77
2022/11/07 06:44:12;;;;;;;12.45;3.67;;;10.20;99.90;;;;;;5129701;27;20545;-77
2022/11/07 06:46:37;;;;;;;18.73;4.05;;;10.20;99.90;;;;;;5126829;27;20046;-77
2022/11/07 06:49:03;;;;;;;9.48;3.38;;;10.20;99.90;;;;;;5124771;27;20039;-76
2022/11/07 06:51:29;;;;;;;10.32;3.85;;;10.20;99.90;;;;;;5149141;27;20481;-75
2022/11/07 06:53:56;;;;;;;9.85;2.97;;;10.20;99.90;;;;;;5112123;27;20039;-74
2022/11/07 06:56:23;;;;;;;12.52;3.50;;;10.80;99.90;;;;;;5146105;27;20038;-75
2022/11/07 06:58:49;;;;;;;7.95;3.17;;;10.10;99.90;;;;;;5140830;27;20506;-75
2022/11/07 07:01:15;;;;;;;11.43;2.70;;;10.10;99.90;;;;;;5112881;27;20054;-75
2022/11/07 07:03:41;;;;;;;13.57;2.90;;;10.10;99.90;;;;;;5110487;27;20054;-75
2022/11/07 07:06:11;;;;;;;12.38;3.20;;;10.20;99.90;;;;;;5148307;27;20091;-74
2022/11/07 07:08:37;;;;;;;16.00;2.97;;;10.10;99.90;;;;;;5141091;27;20083;-76
2022/11/07 07:11:05;;;;;;;8.02;2.40;;;10.10;99.90;;;;;;5125331;27;20126;-75
2022/11/07 07:13:31;;;;;;;16.55;3.88;;;10.20;99.90;;;;;;5138625;27;20801;-75
2022/11/07 07:15:57;;;;;;;20.63;3.97;;;11.10;99.90;;;;;;5108423;27;20078;-73
2022/11/07 07:18:25;;;;;;;13.52;4.47;;;10.20;99.90;;;;;;5125015;27;20106;-75
2022/11/07 07:20:51;;;;;;;14.68;4.90;;;10.30;99.90;;;;;;5143206;27;20402;-75
2022/11/07 07:23:19;;;;;;;17.08;5.18;;;10.20;99.90;;;;;;5142436;27;20035;-75
2022/11/07 07:25:45;;;;;;;18.02;6.05;;;10.30;99.90;;;;;;5125054;27;20054;-75
2022/11/07 07:28:11;;;;;;;15.77;6.47;;;10.20;99.90;;;;;;5127005;27;20045;-75
2022/11/07 07:30:37;;;;;;;17.27;7.43;;;10.30;99.90;;;;;;5142106;27;20046;-75
2022/11/07 07:33:03;;;;;;;20.10;8.50;;;10.30;99.90;;;;;;5125597;27;20035;-75
2022/11/07 07:35:28;;;;;;;15.90;7.20;;;10.30;99.90;;;;;;5123768;27;20042;-75
2022/11/07 07:37:54;;;;;;;25.25;6.93;;;10.30;99.90;;;;;;5149895;27;20031;-75
2022/11/07 07:40:20;;;;;;;18.27;6.80;;;10.20;99.90;;;;;;5130833;27;20501;-75
2022/11/07 07:42:46;;;;;;;16.15;6.65;;;10.30;99.90;;;;;;5124187;27;20042;-76
2022/11/07 07:45:14;;;;;;;20.38;6.63;;;10.30;99.90;;;;;;5125204;27;20139;-75
2022/11/07 07:47:41;;;;;;;18.15;6.43;;;10.30;99.90;;;;;;5124215;27;20101;-77
2022/11/07 07:50:08;;;;;;;26.23;7.57;;;10.40;99.90;;;;;;5124555;27;20062;-77
2022/11/07 07:52:34;;;;;;;28.52;7.40;;;10.40;99.90;;;;;;5138211;27;20147;-76
2022/11/07 07:55:00;;;;;;;20.80;6.80;;;10.40;99.90;;;;;;5125153;27;20509;-76
2022/11/07 07:57:26;;;;;;;11.35;6.90;;;10.30;99.90;;;;;;5108534;27;20035;-76
2022/11/07 07:59:52;;;;;;;17.88;7.20;;;10.40;99.90;;;;;;5128794;27;20372;-76
2022/11/07 08:02:17;;;;;;;18.13;7.07;;;10.40;99.90;;;;;;5125602;27;20046;-76
2022/11/07 08:04:43;;;;;;;20.15;7.55;;;10.40;99.90;;;;;;5125989;27;20524;-76
2022/11/07 08:07:09;;;;;;;19.42;7.65;;;10.40;99.90;;;;;;5132669;27;20042;-77
2022/11/07 08:09:35;;;;;;;15.60;7.00;;;10.40;99.90;;;;;;5110591;27;20049;-77
2022/11/07 08:12:07;;;;;;;22.17;7.85;;;10.50;99.90;;;;;;5131412;27;20050;-76
2022/11/07 08:14:33;;;;;;;16.13;6.55;;;10.40;99.90;;;;;;5128757;27;20039;-76
2022/11/07 08:16:59;;;;;;;22.45;10.82;;;10.50;99.90;;;;;;5150735;27;20041;-76
2022/11/07 08:19:25;;;;;;;20.45;8.85;;;10.40;99.90;;;;;;5132005;27;20133;-76
2022/11/07 08:21:51;;;;;;;24.10;7.60;;;10.50;99.90;;;;;;5128724;27;20051;-77
2022/11/07 08:24:17;;;;;;;20.63;7.30;;;10.50;99.90;;;;;;5112796;27;20098;-76
2022/11/07 08:26:43;;;;;;;21.27;7.20;;;10.50;99.90;;;;;;5142001;27;20095;-76
2022/11/07 08:29:08;;;;;;;16.90;6.63;;;10.50;99.90;;;;;;5143681;27;20470;-76
2022/11/07 08:31:34;;;;;;;20.10;6.40;;;10.50;99.90;;;;;;5140672;27;20043;-76
2022/11/07 08:34:00;;;;;;;23.88;7.75;;;10.50;99.90;;;;;;5122767;27;20054;-77
2022/11/07 08:36:26;;;;;;;25.20;8.60;;;10.50;99.90;;;;;;5123576;27;20050;-77
2022/11/07 08:38:52;;;;;;;23.42;7.30;;;11.90;99.90;;;;;;5122250;27;20096;-76
2022/11/07 08:41:19;;;;;;;18.63;6.25;;;11.70;99.90;;;;;;5142861;27;20046;-75
2022/11/07 08:43:45;;;;;;;20.27;7.88;;;10.60;99.90;;;;;;5142578;27;20063;-76
2022/11/07 08:46:11;;;;;;;21.92;7.35;;;11.60;99.90;;;;;;5120982;27;20077;-76
2022/11/07 08:48:38;;;;;;;16.88;6.82;;;10.60;99.90;;;;;;5147088;27;20490;-76
2022/11/07 08:51:04;;;;;;;23.90;5.95;;;10.60;99.90;;;;;;5106547;27;20442;-76
2022/11/07 08:53:30;;;;;;;21.95;6.57;;;10.70;99.90;;;;;;5141651;27;20055;-76
2022/11/07 08:56:01;;;;;;;22.42;6.75;;;10.70;99.90;;;;;;5140629;27;20035;-76
2022/11/07 08:58:27;;;;;;;18.92;5.80;;;11.30;99.90;;;;;;5123458;27;20382;-76
2022/11/07 09:00:52;;;;;;;21.88;7.03;;;11.90;99.90;;;;;;5130728;27;20039;-76
2022/11/07 09:03:18;;;;;;;19.60;6.90;;;10.80;99.90;;;;;;5115682;27;20035;-76
2022/11/07 09:05:43;;;;;;;18.52;6.20;;;10.10;99.90;;;;;;5148249;27;20058;-76
2022/11/07 09:08:09;;;;;;;13.85;5.00;;;11.00;99.90;;;;;;5148636;27;20031;-76
2022/11/07 09:10:35;;;;;;;17.92;4.93;;;10.80;99.90;;;;;;5150684;27;20133;-75
2022/11/07 09:13:00;;;;;;;17.92;5.28;;;10.70;99.90;;;;;;5132234;27;20534;-76
2022/11/07 09:15:26;;;;;;;11.60;4.15;;;12.00;99.90;;;;;;5149718;27;20030;-84
2022/11/07 09:17:51;;;;;;;24.75;6.10;;;12.00;99.90;;;;;;5112780;27;20049;-76
2022/11/07 09:20:18;;;;;;;23.98;5.47;;;11.40;99.90;;;;;;5128129;28;20039;-76
2022/11/07 09:22:44;;;;;;;16.00;5.68;;;11.00;99.90;;;;;;5109573;27;20043;-77
2022/11/07 09:25:10;;;;;;;19.80;4.72;;;11.00;99.90;;;;;;5125476;27;20061;-77
2022/11/07 09:27:36;;;;;;;17.75;4.32;;;11.00;99.90;;;;;;5105147;27;20369;-77
2022/11/07 09:30:02;;;;;;;18.45;5.07;;;11.10;99.90;;;;;;5150354;27;20091;-77
2022/11/07 09:32:28;;;;;;;21.45;5.20;;;11.10;99.90;;;;;;5127276;27;20039;-77
2022/11/07 09:34:54;;;;;;;20.25;5.80;;;11.10;99.90;;;;;;5111770;27;20491;-76
2022/11/07 09:37:20;;;;;;;18.30;5.40;;;11.10;99.90;;;;;;5130343;27;20106;-77
2022/11/07 09:39:46;;;;;;;18.70;5.32;;;11.10;99.90;;;;;;5151747;27;20650;-76
2022/11/07 09:42:48;;;;;;;18.67;4.85;;;11.10;99.90;;;;;;5107746;27;20550;-77
2022/11/07 09:45:13;;;;;;;21.33;5.13;;;11.10;99.90;;;;;;5039013;27;20448;-77
2022/11/07 09:48:01;;;;;;;17.95;4.70;;;11.20;99.90;;;;;;5125531;27;20046;-76
2022/11/07 09:50:37;;;;;;;12.10;4.78;;;11.50;99.90;;;;;;5141673;27;20470;-77
2022/11/07 09:53:29;;;;;;;18.27;4.55;;;11.20;99.90;;;;;;5130747;27;20150;-77
2022/11/07 09:55:58;;;;;;;21.08;4.65;;;11.30;99.90;;;;;;5138958;27;20096;-76
2022/11/07 09:58:34;;;;;;;18.77;4.30;;;11.30;99.90;;;;;;5145836;27;20094;-76
2022/11/07 10:01:04;;;;;;;16.75;4.85;;;11.30;99.90;;;;;;5125382;27;20478;-77
2022/11/07 10:03:33;;;;;;;17.27;4.38;;;11.30;99.90;;;;;;5145625;27;20038;-77
2022/11/07 10:06:13;;;;;;;15.60;4.45;;;11.30;99.90;;;;;;5129415;27;20081;-79
2022/11/07 10:08:49;;;;;;;19.60;4.28;;;11.40;99.90;;;;;;5118049;27;20051;-79
2022/11/07 10:11:58;;;;;;;11.55;4.65;;;11.30;99.90;;;;;;5147138;27;20042;-80
2022/11/07 10:14:59;;;;;;;16.60;4.35;;;11.40;99.90;;;;;;5127063;27;20039;-75
2022/11/07 10:17:52;;;;;;;13.68;4.03;;;11.50;99.90;;;;;;5048601;28;20106;-77
2022/11/07 10:20:30;;;;;;;17.23;3.78;;;11.40;99.90;;;;;;5139636;27;20051;-80
2022/11/07 10:23:25;;;;;;;17.77;4.18;;;11.40;99.90;;;;;;5106381;27;20054;-77
2022/11/07 10:26:09;;;;;;;15.75;3.67;;;11.50;99.90;;;;;;5112587;27;20098;-78
2022/11/07 10:28:47;;;;;;;13.15;3.83;;;11.80;99.90;;;;;;5127309;27;20367;-80
2022/11/07 10:31:14;;;;;;;19.73;3.58;;;11.60;99.90;;;;;;5112732;27;20478;-76
2022/11/07 10:33:59;;;;;;;13.93;4.57;;;12.80;99.90;;;;;;5112419;27;20105;-76
2022/11/07 10:36:26;;;;;;;;;;;11.70;99.90;;;;;;5128384;27;20035;-77
2022/11/07 10:38:52;;;;;;;18.00;3.33;;;11.70;99.90;;;;;;5119867;27;20002;-78
2022/11/07 10:41:28;;;;;;;12.30;3.50;;;12.50;99.90;;;;;;5126541;27;20047;-77
2022/11/07 10:44:06;;;;;;;14.15;3.33;;;11.80;99.90;;;;;;5106448;28;20039;-77
2022/11/07 10:46:44;;;;;;;16.45;3.13;;;11.80;99.90;;;;;;5128386;27;20046;-79
2022/11/07 10:49:19;;;;;;;14.88;3.33;;;11.90;99.90;;;;;;5121851;27;20043;-76
2022/11/07 10:51:45;;;;;;;13.48;2.75;;;11.90;99.90;;;;;;5120813;27;20075;-77
2022/11/07 10:54:29;;;;;;;14.95;3.22;;;12.00;99.90;;;;;;5104026;27;20094;-76
2022/11/07 10:57:02;;;;;;;21.65;6.35;;;12.00;99.90;;;;;;5119926;27;20054;-76
2022/11/07 10:59:30;;;;;;;12.88;2.70;;;12.00;99.90;;;;;;4395992;27;10000701;-77
2022/11/07 11:01:58;;;;;;;15.52;3.20;;;12.40;99.90;;;;;;5112805;27;20039;-78
2022/11/07 11:04:30;;;;;;;12.85;2.95;;;12.10;99.90;;;;;;5128443;27;20035;-78
2022/11/07 11:07:00;;;;;;;12.95;3.22;;;12.10;99.90;;;;;;5111831;27;20096;-77
2022/11/07 11:09:31;;;;;;;17.50;4.03;;;12.10;99.90;;;;;;5105214;27;20143;-77
2022/11/07 11:11:57;;;;;;;14.52;3.00;;;12.60;99.90;;;;;;5128099;27;20073;-77
2022/11/07 11:14:23;;;;;;;11.50;2.95;;;12.10;99.90;;;;;;5127475;27;20094;-76
2022/11/07 11:16:54;;;;;;;12.80;2.90;;;12.20;99.90;;;;;;5111592;27;20118;-78
2022/11/07 11:19:35;;;;;;;13.68;3.65;;;12.70;99.90;;;;;;5129208;27;20444;-78
2022/11/07 11:22:01;;;;;;;11.75;3.75;;;12.20;99.90;;;;;;5105262;28;20043;-77
2022/11/07 11:24:38;;;;;;;16.50;3.60;;;12.20;99.90;;;;;;5126657;27;20043;-78
2022/11/07 11:27:12;;;;;;;13.98;3.65;;;12.30;99.90;;;;;;5127166;27;20039;-77
2022/11/07 11:30:06;;;;;;;17.77;3.28;;;12.30;99.90;;;;;;5125460;27;20452;-78
2022/11/07 11:32:40;;;;;;;20.08;3.50;;;11.40;99.90;;;;;;5116551;27;20047;-78
2022/11/07 11:35:18;;;;;;;10.40;2.80;;;12.40;99.90;;;;;;5101125;27;20055;-76
2022/11/07 11:37:49;;;;;;;18.45;3.47;;;12.40;99.90;;;;;;5123557;27;20053;-76
2022/11/07 11:40:21;;;;;;;15.55;4.45;;;12.90;99.90;;;;;;5119348;27;20052;-77
2022/11/07 11:43:10;;;;;;;13.65;2.92;;;12.40;99.90;;;;;;5100760;27;20052;-76
2022/11/07 11:45:39;;;;;;;17.65;3.25;;;12.80;99.90;;;;;;5117970;27;20047;-76
2022/11/07 11:48:18;;;;;;;14.88;3.50;;;12.40;99.90;;;;;;5120492;27;20039;-76
2022/11/07 11:51:08;;;;;;;10.98;3.50;;;13.10;99.90;;;;;;5122268;27;20099;-79
2022/11/07 11:53:34;;;;;;;14.40;3.85;;;12.50;99.90;;;;;;5071747;27;20054;-76
2022/11/07 11:56:05;;;;;;;14.32;3.42;;;12.50;99.90;;;;;;5123602;27;20043;-77
2022/11/07 11:58:58;;;;;;;14.02;3.58;;;12.60;99.90;;;;;;5119862;27;20027;-77
2022/11/07 12:01:55;;;;;;;14.45;3.60;;;12.60;99.90;;;;;;5100976;27;20496;-77
2022/11/07 12:04:44;;;;;;;20.67;4.40;;;12.60;99.90;;;;;;5115533;27;20498;-77
2022/11/07 12:07:46;;;;;;;13.90;3.42;;;12.70;99.90;;;;;;5123147;27;20504;-77
2022/11/07 12:10:28;;;;;;;16.58;3.33;;;12.80;99.90;;;;;;5102724;27;20043;-77
2022/11/07 12:13:10;;;;;;;15.13;3.38;;;12.80;99.90;;;;;;5116097;27;20047;-77
2022/11/07 12:15:57;;;;;;;12.43;3.08;;;12.80;99.90;;;;;;5119575;27;20054;-77
2022/11/07 12:18:45;;;;;;;14.10;3.00;;;12.80;99.90;;;;;;5125838;27;20035;-79
2022/11/07 12:21:31;;;;;;;10.68;2.75;;;12.80;99.90;;;;;;5127411;27;20043;-75
2022/11/07 12:24:18;;;;;;;13.20;3.35;;;12.80;99.90;;;;;;5117825;27;20032;-76
2022/11/07 12:27:02;;;;;;;13.88;4.05;;;12.90;99.90;;;;;;5120490;27;20454;-78
2022/11/07 12:29:49;;;;;;;8.68;2.55;;;12.90;99.90;;;;;;5102415;27;20043;-76
2022/11/07 12:32:43;;;;;;;9.82;2.72;;;13.00;99.90;;;;;;5102874;27;20090;-77
2022/11/07 12:35:25;;;;;;;14.23;2.72;;;13.00;99.90;;;;;;5096079;27;20047;-75
2022/11/07 12:38:37;;;;;;;12.85;2.55;;;13.10;99.90;;;;;;5121612;27;20047;-75
2022/11/07 12:41:23;;;;;;;10.07;2.45;;;13.50;99.90;;;;;;5099641;27;20051;-77
2022/11/07 12:44:01;;;;;;;7.70;2.47;;;13.20;99.90;;;;;;5124318;27;20118;-77
2022/11/07 12:46:39;;;;;;;8.55;1.95;;;13.20;99.90;;;;;;5105422;27;20043;-76
2022/11/07 12:49:23;;;;;;;12.85;2.50;;;13.20;99.90;;;;;;5118926;27;20049;-78
2022/11/07 12:51:55;;;;;;;8.88;2.63;;;13.30;99.90;;;;;;5100430;27;20079;-80
2022/11/07 12:54:29;;;;;;;7.80;2.30;;;13.30;99.90;;;;;;5103673;27;20546;-79
2022/11/07 12:56:56;;;;;;;10.95;2.33;;;13.30;99.90;;;;;;5106789;28;20050;-78
2022/11/07 12:59:28;;;;;;;13.00;2.50;;;13.30;99.90;;;;;;5100131;27;20036;-79
2022/11/07 13:02:00;;;;;;;8.20;1.88;;;13.30;99.90;;;;;;5125024;27;20511;-79
2022/11/07 13:04:36;;;;;;;12.00;2.30;;;13.20;99.90;;;;;;5102506;27;20035;-79
2022/11/07 13:07:04;;;;;;;14.73;2.90;;;13.20;99.90;;;;;;5120792;27;20115;-76
2022/11/07 13:09:39;;;;;;;9.18;2.33;;;13.20;99.90;;;;;;5108884;27;20044;-76